createdAt,value
2022-08-19T00:04:48.389Z,1010.45
2022-08-19T00:09:41.030Z,1010.41
2022-08-19T00:14:33.317Z,1010.38
2022-08-19T00:19:25.726Z,1010.32
2022-08-19T00:24:18.592Z,1010.29
2022-08-19T00:29:11.262Z,1010.21
2022-08-19T00:34:03.927Z,1010.18
2022-08-19T00:38:56.600Z,1010.13
2022-08-19T00:43:49.325Z,1010.05
2022-08-19T00:48:41.828Z,1010.09
2022-08-19T00:53:34.591Z,1009.96
2022-08-19T00:58:27.361Z,1009.93
2022-08-19T01:03:19.766Z,1009.87
2022-08-19T01:08:12.847Z,1009.74
2022-08-19T01:13:05.442Z,1009.64
2022-08-19T01:17:57.898Z,1009.58
2022-08-19T01:22:50.410Z,1009.48
2022-08-19T01:27:43.732Z,1009.38
2022-08-19T01:32:35.863Z,1009.3
2022-08-19T01:37:28.549Z,1009.18
2022-08-19T01:42:21.208Z,1009.09
2022-08-19T01:47:13.793Z,1008.97
2022-08-19T01:52:06.646Z,1008.95
2022-08-19T01:56:59.176Z,1009.01
2022-08-19T02:06:44.519Z,1009.1
2022-08-19T02:16:29.691Z,1009.27
2022-08-19T02:26:15.022Z,1009.22
2022-08-19T02:36:00.326Z,1009.17
2022-08-19T02:40:52.870Z,1009.24
2022-08-19T02:45:45.728Z,1009.17
2022-08-19T02:50:38.151Z,1009.24
2022-08-19T02:55:30.700Z,1009.4
2022-08-19T03:00:23.165Z,1009.59
2022-08-19T03:05:15.953Z,1009.7
2022-08-19T03:10:08.379Z,1010.02
2022-08-19T03:15:00.955Z,1010.15
2022-08-19T03:19:53.718Z,1010.3
2022-08-19T03:24:45.920Z,1010.25
2022-08-19T03:29:43.058Z,1010.31
2022-08-19T03:34:31.097Z,1010.31
2022-08-19T03:39:23.717Z,1010.37
2022-08-19T03:44:16.663Z,1010.38
2022-08-19T03:49:09.199Z,1010.31
2022-08-19T03:54:01.831Z,1010.37
2022-08-19T03:58:54.735Z,1010.37
2022-08-19T04:03:46.915Z,1010.45
2022-08-19T04:08:39.498Z,1010.45
2022-08-19T04:13:32.222Z,1010.43
2022-08-19T04:18:24.846Z,1010.42
2022-08-19T04:23:17.651Z,1010.35
2022-08-19T04:28:10.581Z,1010.29
2022-08-19T04:33:03.099Z,1010.25
2022-08-19T04:37:55.660Z,1010.23
2022-08-19T04:42:48.539Z,1010.18
2022-08-19T04:47:47.368Z,1010.24
2022-08-19T04:52:32.706Z,1010.29
2022-08-19T04:57:25.159Z,1010.3
2022-08-19T05:02:17.803Z,1010.26
2022-08-19T05:07:10.420Z,1010.15
2022-08-19T05:12:02.547Z,1010.13
2022-08-19T05:17:06.529Z,1010.11
2022-08-19T05:21:47.715Z,1010.26
2022-08-19T05:26:39.986Z,1010.37
2022-08-19T05:31:32.318Z,1010.39
2022-08-19T05:36:24.862Z,1010.4
2022-08-19T05:41:17.497Z,1010.42
2022-08-19T05:46:10.344Z,1010.47
2022-08-19T05:51:02.737Z,1010.45
2022-08-19T05:55:55.233Z,1010.53
2022-08-19T06:00:47.691Z,1010.57
2022-08-19T06:05:46.349Z,1010.6
2022-08-19T06:10:33.017Z,1010.66
2022-08-19T06:15:25.304Z,1010.78
2022-08-19T06:20:18.788Z,1010.94
2022-08-19T06:25:10.149Z,1010.97
2022-08-19T06:30:03.005Z,1011.08
2022-08-19T06:34:55.030Z,1011.14
2022-08-19T06:39:47.630Z,1011.33
2022-08-19T06:44:42.364Z,1011.4
2022-08-19T06:49:32.685Z,1011.53
2022-08-19T06:54:25.319Z,1011.59
2022-08-19T06:59:17.747Z,1011.73
2022-08-19T07:04:10.562Z,1011.77
2022-08-19T07:09:02.673Z,1011.79
2022-08-19T07:13:55.408Z,1011.74
2022-08-19T07:18:48.025Z,1011.59
2022-08-19T07:23:40.433Z,1011.56
2022-08-19T07:28:33.195Z,1011.65
2022-08-19T07:33:27.872Z,1011.6
2022-08-19T07:38:18.374Z,1011.6
2022-08-19T07:43:14.013Z,1011.65
2022-08-19T07:48:04.185Z,1011.67
2022-08-19T07:52:56.224Z,1011.75
2022-08-19T07:57:48.928Z,1011.79
2022-08-19T08:02:40.849Z,1011.81
2022-08-19T08:12:34.007Z,1011.89
2022-08-19T08:22:11.421Z,1011.99
2022-08-19T08:31:58.434Z,1012.12
2022-08-19T08:36:49.298Z,1012.17
2022-08-19T08:41:41.857Z,1012.19
2022-08-19T08:46:34.651Z,1012.35
2022-08-19T08:51:29.136Z,1012.44
2022-08-19T08:56:19.946Z,1012.48
2022-08-19T09:01:13.080Z,1012.48
2022-08-19T09:06:05.715Z,1012.42
2022-08-19T09:10:58.283Z,1012.46
2022-08-19T09:15:51.084Z,1012.41
2022-08-19T09:20:43.481Z,1012.44
2022-08-19T09:25:36.045Z,1012.37
2022-08-19T09:30:28.768Z,1012.35
2022-08-19T09:35:21.356Z,1012.29
2022-08-19T09:40:14.311Z,1012.21
2022-08-19T09:45:10.184Z,1012.17
2022-08-19T09:50:01.253Z,1012.24
2022-08-19T09:54:53.491Z,1012.33
2022-08-19T09:59:46.459Z,1012.31
2022-08-19T10:04:39.036Z,1012.34
2022-08-19T10:09:34.243Z,1012.39
2022-08-19T10:14:24.419Z,1012.49
2022-08-19T10:19:16.695Z,1012.51
2022-08-19T10:24:09.403Z,1012.54
2022-08-19T10:29:01.719Z,1012.4
2022-08-19T10:33:54.420Z,1012.39
2022-08-19T10:38:50.352Z,1012.46
2022-08-19T10:43:39.363Z,1012.53
2022-08-19T10:48:31.922Z,1012.52
2022-08-19T10:53:26.579Z,1012.57
2022-08-19T10:58:18.839Z,1012.64
2022-08-19T11:03:11.397Z,1012.58
2022-08-19T11:08:03.933Z,1012.55
2022-08-19T11:12:56.505Z,1012.6
2022-08-19T11:17:49.353Z,1012.61
2022-08-19T11:22:42.158Z,1012.73
2022-08-19T11:27:34.542Z,1012.79
2022-08-19T11:32:27.027Z,1012.81
2022-08-19T11:37:19.452Z,1012.81
2022-08-19T11:42:11.610Z,1012.72
2022-08-19T11:47:08.784Z,1012.64
2022-08-19T11:51:56.766Z,1012.57
2022-08-19T11:56:49.400Z,1012.54
2022-08-19T12:01:42.178Z,1012.5
2022-08-19T12:06:34.651Z,1012.39
2022-08-19T12:11:27.121Z,1012.29
2022-08-19T12:16:19.871Z,1012.16
2022-08-19T12:21:12.229Z,1012.07
2022-08-19T12:26:04.893Z,1012.15
2022-08-19T12:30:57.346Z,1012.13
2022-08-19T12:35:49.828Z,1012.08
2022-08-19T12:40:42.816Z,1011.92
2022-08-19T12:45:35.542Z,1011.88
2022-08-19T12:50:28.560Z,1011.83
2022-08-19T12:55:21.119Z,1012
2022-08-19T13:00:13.973Z,1012.09
2022-08-19T13:05:06.578Z,1012.16
2022-08-19T13:09:59.318Z,1012.17
2022-08-19T13:14:51.840Z,1012.24
2022-08-19T13:19:44.655Z,1012.37
2022-08-19T13:24:37.113Z,1012.41
2022-08-19T13:29:29.840Z,1012.47
2022-08-19T13:34:22.534Z,1012.54
2022-08-19T13:39:15.099Z,1012.51
2022-08-19T13:44:07.943Z,1012.42
2022-08-19T13:49:00.419Z,1012.49
2022-08-19T13:53:52.868Z,1012.55
2022-08-19T13:58:45.611Z,1012.53
2022-08-19T14:03:38.167Z,1012.55
2022-08-19T14:08:30.731Z,1012.52
2022-08-19T14:18:16.153Z,1012.55
2022-08-19T14:28:01.232Z,1012.55
2022-08-19T14:37:46.447Z,1012.62
2022-08-19T14:42:42.984Z,1012.47
2022-08-19T14:47:34.834Z,1012.4
2022-08-19T14:52:27.283Z,1012.38
2022-08-19T14:57:19.771Z,1012.33
2022-08-19T15:02:20.408Z,1012.4
2022-08-19T15:07:05.204Z,1012.39
2022-08-19T15:11:57.763Z,1012.41
2022-08-19T15:16:50.533Z,1012.33
2022-08-19T15:21:43.392Z,1012.32
2022-08-19T15:26:36.275Z,1012.39
2022-08-19T15:31:29.141Z,1012.46
2022-08-19T15:36:21.602Z,1012.44
2022-08-19T15:41:13.981Z,1012.44
2022-08-19T15:46:06.672Z,1012.43
2022-08-19T15:50:59.300Z,1012.34
2022-08-19T15:55:51.610Z,1012.34
2022-08-19T16:00:44.333Z,1012.34
2022-08-19T16:05:36.758Z,1012.31
2022-08-19T16:10:29.529Z,1012.32
2022-08-19T16:15:22.158Z,1012.27
2022-08-19T16:20:14.670Z,1012.25
2022-08-19T16:25:07.578Z,1012.15
2022-08-19T16:30:00.143Z,1012.15
2022-08-19T16:34:52.543Z,1012.15
2022-08-19T16:39:44.944Z,1012.2
2022-08-19T16:44:37.816Z,1012.28
2022-08-19T16:49:52.787Z,1012.26
2022-08-19T16:54:25.639Z,1012.23
2022-08-19T16:59:17.320Z,1012.31
2022-08-19T17:04:09.690Z,1012.41
2022-08-19T17:09:02.824Z,1012.37
2022-08-19T17:13:55.388Z,1012.4
2022-08-19T17:18:47.733Z,1012.35
2022-08-19T17:23:42.620Z,1012.36
2022-08-19T17:28:32.972Z,1012.34
2022-08-19T17:33:25.506Z,1012.33
2022-08-19T17:38:18.306Z,1012.36
2022-08-19T17:43:10.966Z,1012.39
2022-08-19T17:48:03.723Z,1012.37
2022-08-19T17:52:56.669Z,1012.41
2022-08-19T17:57:49.198Z,1012.43
2022-08-19T18:02:42.057Z,1012.43
2022-08-19T18:07:34.550Z,1012.48
2022-08-19T18:12:26.910Z,1012.44
2022-08-19T18:17:19.686Z,1012.42
2022-08-19T18:22:12.218Z,1012.41
2022-08-19T18:27:04.782Z,1012.4
2022-08-19T18:31:57.286Z,1012.34
2022-08-19T18:36:53.619Z,1012.43
2022-08-19T18:41:42.682Z,1012.49
2022-08-19T18:46:36.775Z,1012.51
2022-08-19T18:51:28.509Z,1012.53
2022-08-19T18:56:20.089Z,1012.56
2022-08-19T19:01:12.693Z,1012.7
2022-08-19T19:06:05.202Z,1012.78
2022-08-19T19:10:57.905Z,1012.8
2022-08-19T19:15:50.591Z,1012.9
2022-08-19T19:20:43.093Z,1012.83
2022-08-19T19:25:44.863Z,1012.78
2022-08-19T19:30:28.414Z,1012.78
2022-08-19T19:35:20.955Z,1012.78
2022-08-19T19:40:13.512Z,1012.9
2022-08-19T19:45:05.890Z,1013.1
2022-08-19T19:54:51.216Z,1013.19
2022-08-19T19:59:44.761Z,1013.14
2022-08-19T20:04:36.757Z,1013.14
2022-08-19T20:14:22.223Z,1013.24
2022-08-19T20:24:09.701Z,1013.39
2022-08-19T20:29:09.515Z,1013.46
2022-08-19T20:33:52.509Z,1013.42
2022-08-19T20:38:45.144Z,1013.44
2022-08-19T20:43:37.881Z,1013.42
2022-08-19T20:48:30.280Z,1013.44
2022-08-19T20:53:23.018Z,1013.44
2022-08-19T20:58:15.685Z,1013.43
2022-08-19T21:03:08.512Z,1013.43
2022-08-19T21:08:00.667Z,1013.42
2022-08-19T21:12:53.411Z,1013.47
2022-08-19T21:17:46.098Z,1013.46
2022-08-19T21:22:38.690Z,1013.48
2022-08-19T21:27:30.914Z,1013.5
2022-08-19T21:32:23.611Z,1013.54
2022-08-19T21:37:17.516Z,1013.56
2022-08-19T21:42:08.929Z,1013.56
2022-08-19T21:47:01.567Z,1013.58
2022-08-19T21:51:54.236Z,1013.59
2022-08-19T21:56:46.559Z,1013.56
2022-08-19T22:01:39.266Z,1013.5
2022-08-19T22:06:31.673Z,1013.5
2022-08-19T22:11:24.278Z,1013.45
2022-08-19T22:16:16.888Z,1013.42
2022-08-19T22:21:12.044Z,1013.35
2022-08-19T22:26:06.390Z,1013.33
2022-08-19T22:30:58.113Z,1013.36
2022-08-19T22:35:50.701Z,1013.4
2022-08-19T22:40:43.498Z,1013.47
2022-08-19T22:45:35.852Z,1013.48
2022-08-19T22:50:28.405Z,1013.47
2022-08-19T22:55:20.734Z,1013.51
2022-08-19T23:00:13.456Z,1013.55
2022-08-19T23:05:05.943Z,1013.62
2022-08-19T23:09:58.340Z,1013.67
2022-08-19T23:14:50.797Z,1013.68
2022-08-19T23:19:43.278Z,1013.7
2022-08-19T23:24:35.940Z,1013.61
2022-08-19T23:29:28.350Z,1013.62
2022-08-19T23:34:21.092Z,1013.7
2022-08-19T23:39:13.660Z,1013.7
2022-08-19T23:44:14.475Z,1013.75
2022-08-19T23:49:01.886Z,1013.73
2022-08-19T23:53:54.302Z,1013.71
2022-08-19T23:58:46.688Z,1013.73
